sensor_id;sensor_type;location;lat;lon;timestamp;pressure;altitude;pressure_sealevel;temperature;humidity
74427;BME280;62859;53.906;27.430;2023-02-01T00:01:09;994.9;;;3.7;61.1
74427;BME280;62859;53.906;27.430;2023-02-01T00:06:45;994.9;;;3.6;61.5
74427;BME280;62859;53.906;27.430;2023-02-01T00:11:57;994.9;;;3.6;61.5
74427;BME280;62859;53.906;27.430;2023-02-01T00:16:55;994.8;;;3.6;61.4
74427;BME280;62859;53.906;27.430;2023-02-01T00:21:09;994.8;;;3.7;61.2
74427;BME280;62859;53.906;27.430;2023-02-01T00:26:55;994.7;;;3.7;61.3
74427;BME280;62859;53.906;27.430;2023-02-01T00:31:09;994.6;;;3.7;61.5
74427;BME280;62859;53.906;27.430;2023-02-01T00:36:09;994.5;;;3.7;61.6
74427;BME280;62859;53.906;27.430;2023-02-01T00:41:33;994.4;;;3.6;61.4
74427;BME280;62859;53.906;27.430;2023-02-01T00:46:09;994.4;;;3.5;61.8
74427;BME280;62859;53.906;27.430;2023-02-01T00:51:33;994.3;;;3.4;61.8
74427;BME280;62859;53.906;27.430;2023-02-01T00:56:09;994.2;;;3.3;62.1
74427;BME280;62859;53.906;27.430;2023-02-01T01:01:10;994.2;;;3.2;62.4
74427;BME280;62859;53.906;27.430;2023-02-01T01:06:55;994.1;;;3.3;62.4
74427;BME280;62859;53.906;27.430;2023-02-01T01:11:20;994;;;3.3;62.1
74427;BME280;62859;53.906;27.430;2023-02-01T01:16:10;993.9;;;3.4;62.4
74427;BME280;62859;53.906;27.430;2023-02-01T01:21:55;993.9;;;3.4;62.3
74427;BME280;62859;53.906;27.430;2023-02-01T01:26:45;993.8;;;3.3;62.3
74427;BME280;62859;53.906;27.430;2023-02-01T01:31:09;993.7;;;3.3;62.4
74427;BME280;62859;53.906;27.430;2023-02-01T01:36:19;993.6;;;3.2;62.2
74427;BME280;62859;53.906;27.430;2023-02-01T01:41:33;993.6;;;3.1;62.6
74427;BME280;62859;53.906;27.430;2023-02-01T01:46:09;993.6;;;3.1;62.6
74427;BME280;62859;53.906;27.430;2023-02-01T01:51:58;993.4;;;3;62.6
74427;BME280;62859;53.906;27.430;2023-02-01T01:56:23;993.4;;;2.9;62.8
74427;BME280;62859;53.906;27.430;2023-02-01T02:01:53;993.3;;;2.8;63.2
74427;BME280;62859;53.906;27.430;2023-02-01T02:06:39;993.2;;;2.9;63.7
74427;BME280;62859;53.906;27.430;2023-02-01T02:11:55;993.2;;;2.8;63.4
74427;BME280;62859;53.906;27.430;2023-02-01T02:16:22;993.1;;;2.7;63.6
74427;BME280;62859;53.906;27.430;2023-02-01T02:21:38;993;;;2.7;63.5
74427;BME280;62859;53.906;27.430;2023-02-01T02:26:12;992.9;;;2.6;63.6
74427;BME280;62859;53.906;27.430;2023-02-01T02:32:00;992.8;;;2.5;63.8
74427;BME280;62859;53.906;27.430;2023-02-01T02:36:10;992.8;;;2.4;63.6
74427;BME280;62859;53.906;27.430;2023-02-01T02:41:12;992.7;;;2.3;63.6
74427;BME280;62859;53.906;27.430;2023-02-01T02:46:59;992.7;;;2.3;63.5
74427;BME280;62859;53.906;27.430;2023-02-01T02:51:34;992.7;;;2.3;63.7
74427;BME280;62859;53.906;27.430;2023-02-01T02:56:55;992.7;;;2.2;63.6
74427;BME280;62859;53.906;27.430;2023-02-01T03:01:33;992.6;;;2.2;63.6
74427;BME280;62859;53.906;27.430;2023-02-01T03:06:55;992.6;;;2.1;63.5
74427;BME280;62859;53.906;27.430;2023-02-01T03:11:23;992.6;;;2.1;63.6
74427;BME280;62859;53.906;27.430;2023-02-01T03:16:46;992.5;;;2;64
74427;BME280;62859;53.906;27.430;2023-02-01T03:21:10;992.5;;;2;64
74427;BME280;62859;53.906;27.430;2023-02-01T03:26:53;992.4;;;1.9;64.3
74427;BME280;62859;53.906;27.430;2023-02-01T03:31:33;992.4;;;1.9;64.2
74427;BME280;62859;53.906;27.430;2023-02-01T03:36:46;992.3;;;1.9;64.4
74427;BME280;62859;53.906;27.430;2023-02-01T03:41:55;992.3;;;1.9;64.5
74427;BME280;62859;53.906;27.430;2023-02-01T03:46:45;992.2;;;1.8;64.3
74427;BME280;62859;53.906;27.430;2023-02-01T03:51:43;992.1;;;1.8;64.3
74427;BME280;62859;53.906;27.430;2023-02-01T03:56:09;992;;;1.7;64.4
74427;BME280;62859;53.906;27.430;2023-02-01T04:01:26;992;;;1.7;64.3
74427;BME280;62859;53.906;27.430;2023-02-01T04:06:09;992;;;1.8;64.1
74427;BME280;62859;53.906;27.430;2023-02-01T04:11:45;991.9;;;1.8;63.7
74427;BME280;62859;53.906;27.430;2023-02-01T04:16:23;991.8;;;1.9;63.4
74427;BME280;62859;53.906;27.430;2023-02-01T04:21:45;991.7;;;1.9;63.5
74427;BME280;62859;53.906;27.430;2023-02-01T04:26:33;991.7;;;1.9;63.4
74427;BME280;62859;53.906;27.430;2023-02-01T04:31:33;991.7;;;2;63.2
74427;BME280;62859;53.906;27.430;2023-02-01T04:36:27;991.7;;;1.9;63.3
74427;BME280;62859;53.906;27.430;2023-02-01T04:41:41;991.6;;;2;63.2
74427;BME280;62859;53.906;27.430;2023-02-01T04:46:55;991.6;;;2;63
74427;BME280;62859;53.906;27.430;2023-02-01T04:51:09;991.6;;;2.1;62.9
74427;BME280;62859;53.906;27.430;2023-02-01T04:56:41;991.5;;;2.1;62.7
74427;BME280;62859;53.906;27.430;2023-02-01T05:01:21;991.5;;;2;63.1
74427;BME280;62859;53.906;27.430;2023-02-01T05:06:29;991.5;;;2;63.7
74427;BME280;62859;53.906;27.430;2023-02-01T05:11:23;991.4;;;2;64.4
74427;BME280;62859;53.906;27.430;2023-02-01T05:16:57;991.3;;;2.1;64.5
74427;BME280;62859;53.906;27.430;2023-02-01T05:21:35;991.3;;;2.1;64.6
74427;BME280;62859;53.906;27.430;2023-02-01T05:26:47;991.3;;;2.1;64.8
74427;BME280;62859;53.906;27.430;2023-02-01T05:31:09;991.3;;;2.1;65.1
74427;BME280;62859;53.906;27.430;2023-02-01T05:36:57;991.3;;;2;65.4
74427;BME280;62859;53.906;27.430;2023-02-01T05:41:09;991.3;;;2;65.4
74427;BME280;62859;53.906;27.430;2023-02-01T05:46:09;991.3;;;2;65.6
74427;BME280;62859;53.906;27.430;2023-02-01T05:51:59;991.3;;;2;65.6
74427;BME280;62859;53.906;27.430;2023-02-01T05:56:23;991.2;;;2.3;66.2
74427;BME280;62859;53.906;27.430;2023-02-01T06:01:41;991.2;;;2.5;64.6
74427;BME280;62859;53.906;27.430;2023-02-01T06:06:53;991.1;;;2.4;64.8
74427;BME280;62859;53.906;27.430;2023-02-01T06:11:57;991.1;;;2.3;65.2
74427;BME280;62859;53.906;27.430;2023-02-01T06:16:31;991.1;;;2.2;65.4
74427;BME280;62859;53.906;27.430;2023-02-01T06:21:43;991.1;;;2.1;65.9
74427;BME280;62859;53.906;27.430;2023-02-01T06:26:43;991.1;;;2.1;66.2
74427;BME280;62859;53.906;27.430;2023-02-01T06:36:33;991.1;;;2;66.5
74427;BME280;62859;53.906;27.430;2023-02-01T06:41:21;991.1;;;2;66.6
74427;BME280;62859;53.906;27.430;2023-02-01T06:46:57;991.1;;;2.2;66.7
74427;BME280;62859;53.906;27.430;2023-02-01T06:51:17;991.1;;;2;66.7
74427;BME280;62859;53.906;27.430;2023-02-01T06:56:45;991.1;;;2.1;66.5
74427;BME280;62859;53.906;27.430;2023-02-01T07:01:55;991.2;;;2.2;66.8
74427;BME280;62859;53.906;27.430;2023-02-01T07:06:57;991.1;;;2.2;66.6
74427;BME280;62859;53.906;27.430;2023-02-01T07:11:33;991;;;2.3;66.5
74427;BME280;62859;53.906;27.430;2023-02-01T07:16:47;991;;;2.3;66.3
74427;BME280;62859;53.906;27.430;2023-02-01T07:21:09;990.9;;;2.3;66.3
74427;BME280;62859;53.906;27.430;2023-02-01T07:26:10;990.9;;;2.3;66.2
74427;BME280;62859;53.906;27.430;2023-02-01T07:31:35;990.9;;;2.3;66.3
74427;BME280;62859;53.906;27.430;2023-02-01T07:36:10;990.8;;;2.4;66.1
74427;BME280;62859;53.906;27.430;2023-02-01T07:41:35;990.8;;;2.5;66.1
74427;BME280;62859;53.906;27.430;2023-02-01T07:46:37;990.8;;;2.6;65.7
74427;BME280;62859;53.906;27.430;2023-02-01T07:51:35;990.8;;;2.4;65.9
74427;BME280;62859;53.906;27.430;2023-02-01T07:56:59;990.8;;;2.4;66.2
74427;BME280;62859;53.906;27.430;2023-02-01T08:01:43;990.8;;;2.4;66.4
74427;BME280;62859;53.906;27.430;2023-02-01T08:06:32;990.8;;;2.5;66.2
74427;BME280;62859;53.906;27.430;2023-02-01T08:11:55;990.8;;;2.5;65.8
74427;BME280;62859;53.906;27.430;2023-02-01T08:16:45;990.7;;;2.5;66.2
74427;BME280;62859;53.906;27.430;2023-02-01T08:21:10;990.7;;;2.5;66.1
74427;BME280;62859;53.906;27.430;2023-02-01T08:26:33;990.6;;;2.6;66.1
74427;BME280;62859;53.906;27.430;2023-02-01T08:31:26;990.6;;;2.6;66
74427;BME280;62859;53.906;27.430;2023-02-01T08:36:24;990.5;;;2.8;65.4
74427;BME280;62859;53.906;27.430;2023-02-01T08:41:57;990.5;;;2.8;65.4
74427;BME280;62859;53.906;27.430;2023-02-01T08:46:37;990.5;;;2.9;65.2
74427;BME280;62859;53.906;27.430;2023-02-01T08:51:59;990.5;;;2.9;65.1
74427;BME280;62859;53.906;27.430;2023-02-01T08:56:35;990.5;;;3;65.2
74427;BME280;62859;53.906;27.430;2023-02-01T09:01:57;990.4;;;3.1;65
74427;BME280;62859;53.906;27.430;2023-02-01T09:06:39;990.4;;;3.1;64.8
74427;BME280;62859;53.906;27.430;2023-02-01T09:11:41;990.4;;;3.2;64.9
74427;BME280;62859;53.906;27.430;2023-02-01T09:16:21;990.4;;;3.2;64.8
74427;BME280;62859;53.906;27.430;2023-02-01T09:21:57;990.4;;;3.1;65.2
74427;BME280;62859;53.906;27.430;2023-02-01T09:26:21;990.4;;;3.2;65.4
74427;BME280;62859;53.906;27.430;2023-02-01T09:31:55;990.4;;;3.2;65.2
74427;BME280;62859;53.906;27.430;2023-02-01T09:36:45;990.3;;;3.2;65.4
74427;BME280;62859;53.906;27.430;2023-02-01T09:41:48;990.3;;;3.4;65.3
74427;BME280;62859;53.906;27.430;2023-02-01T09:46:43;990.2;;;3.5;65.1
74427;BME280;62859;53.906;27.430;2023-02-01T09:51:36;990.1;;;3.6;64.9
74427;BME280;62859;53.906;27.430;2023-02-01T09:56:48;990.1;;;3.6;64.9
74427;BME280;62859;53.906;27.430;2023-02-01T10:01:10;990.1;;;3.6;65.3
74427;BME280;62859;53.906;27.430;2023-02-01T10:06:47;990.1;;;3.7;65.2
74427;BME280;62859;53.906;27.430;2023-02-01T10:11:27;990.1;;;3.8;65.1
74427;BME280;62859;53.906;27.430;2023-02-01T10:16:59;990.1;;;3.8;64.8
74427;BME280;62859;53.906;27.430;2023-02-01T10:21:27;990.2;;;3.9;64.9
74427;BME280;62859;53.906;27.430;2023-02-01T10:26:59;990.1;;;4.1;64.4
74427;BME280;62859;53.906;27.430;2023-02-01T10:31:55;990.1;;;4.1;64.1
74427;BME280;62859;53.906;27.430;2023-02-01T10:36:50;990.2;;;4.2;64.2
74427;BME280;62859;53.906;27.430;2023-02-01T10:41:41;990.2;;;4.2;64.6
74427;BME280;62859;53.906;27.430;2023-02-01T10:46:22;990;;;4.1;64.5
74427;BME280;62859;53.906;27.430;2023-02-01T10:51:26;990.1;;;4.2;64.5
74427;BME280;62859;53.906;27.430;2023-02-01T10:56:21;990;;;4.2;64.5
74427;BME280;62859;53.906;27.430;2023-02-01T11:01:37;990;;;4.3;64.4
74427;BME280;62859;53.906;27.430;2023-02-01T11:06:30;990;;;4.3;64.6
74427;BME280;62859;53.906;27.430;2023-02-01T11:11:59;989.9;;;4.4;64.5
74427;BME280;62859;53.906;27.430;2023-02-01T11:16:39;989.9;;;4.4;65
74427;BME280;62859;53.906;27.430;2023-02-01T11:21:59;989.9;;;4.4;64.8
74427;BME280;62859;53.906;27.430;2023-02-01T11:26:45;989.9;;;4.4;64.9
74427;BME280;62859;53.906;27.430;2023-02-01T11:31:43;989.9;;;4.4;65
74427;BME280;62859;53.906;27.430;2023-02-01T11:36:58;989.8;;;4.5;65
74427;BME280;62859;53.906;27.430;2023-02-01T11:41:11;989.8;;;4.6;64.7
74427;BME280;62859;53.906;27.430;2023-02-01T11:46:49;989.8;;;4.7;65.2
74427;BME280;62859;53.906;27.430;2023-02-01T11:51:15;989.7;;;4.8;64.5
74427;BME280;62859;53.906;27.430;2023-02-01T11:56:49;989.7;;;4.8;64.2
74427;BME280;62859;53.906;27.430;2023-02-01T12:01:12;989.7;;;4.8;64.1
74427;BME280;62859;53.906;27.430;2023-02-01T12:06:59;989.7;;;4.8;63.9
74427;BME280;62859;53.906;27.430;2023-02-01T12:11:20;989.8;;;4.8;64
74427;BME280;62859;53.906;27.430;2023-02-01T12:16:48;989.7;;;4.9;64.4
74427;BME280;62859;53.906;27.430;2023-02-01T12:21:52;989.7;;;4.8;64.3
74427;BME280;62859;53.906;27.430;2023-02-01T12:27:05;989.7;;;4.9;64.6
74427;BME280;62859;53.906;27.430;2023-02-01T12:31:23;989.7;;;4.9;64.8
74427;BME280;62859;53.906;27.430;2023-02-01T12:36:11;989.7;;;4.9;64.6
74427;BME280;62859;53.906;27.430;2023-02-01T12:42:01;989.7;;;4.9;64.5
74427;BME280;62859;53.906;27.430;2023-02-01T12:46:19;989.7;;;4.9;64.7
74427;BME280;62859;53.906;27.430;2023-02-01T12:51:49;989.6;;;4.8;64.7
74427;BME280;62859;53.906;27.430;2023-02-01T12:56:52;989.6;;;4.9;65.5
74427;BME280;62859;53.906;27.430;2023-02-01T13:01:58;989.6;;;4.8;65.1
74427;BME280;62859;53.906;27.430;2023-02-01T13:06:24;989.6;;;4.8;64.9
74427;BME280;62859;53.906;27.430;2023-02-01T13:12:00;989.6;;;4.8;64.8
74427;BME280;62859;53.906;27.430;2023-02-01T13:16:12;989.6;;;4.8;64.8
74427;BME280;62859;53.906;27.430;2023-02-01T13:21:10;989.7;;;4.8;64.8
74427;BME280;62859;53.906;27.430;2023-02-01T13:26:33;989.7;;;4.6;65
74427;BME280;62859;53.906;27.430;2023-02-01T13:31:17;989.7;;;4.6;65.2
74427;BME280;62859;53.906;27.430;2023-02-01T13:36:39;989.6;;;4.5;65.4
74427;BME280;62859;53.906;27.430;2023-02-01T13:41:12;989.6;;;4.5;65.8
74427;BME280;62859;53.906;27.430;2023-02-01T13:46:38;989.6;;;4.5;65.6
74427;BME280;62859;53.906;27.430;2023-02-01T13:51:59;989.6;;;4.5;65.8
74427;BME280;62859;53.906;27.430;2023-02-01T13:56:59;989.6;;;4.4;65.7
74427;BME280;62859;53.906;27.430;2023-02-01T14:01:31;989.7;;;4.4;65.8
74427;BME280;62859;53.906;27.430;2023-02-01T14:06:59;989.7;;;4.4;65.9
74427;BME280;62859;53.906;27.430;2023-02-01T14:11:31;989.6;;;4.3;66.2
74427;BME280;62859;53.906;27.430;2023-02-01T14:16:23;989.7;;;4.3;66.2
74427;BME280;62859;53.906;27.430;2023-02-01T14:21:45;989.6;;;4.2;66.6
74427;BME280;62859;53.906;27.430;2023-02-01T14:26:11;989.7;;;4.2;67.1
74427;BME280;62859;53.906;27.430;2023-02-01T14:31:30;989.7;;;4;67.7
74427;BME280;62859;53.906;27.430;2023-02-01T14:36:23;989.7;;;3.9;68
74427;BME280;62859;53.906;27.430;2023-02-01T14:41:35;989.7;;;3.8;68.5
74427;BME280;62859;53.906;27.430;2023-02-01T14:47:03;989.7;;;3.7;68.8
74427;BME280;62859;53.906;27.430;2023-02-01T14:51:35;989.7;;;3.6;69.1
74427;BME280;62859;53.906;27.430;2023-02-01T14:56:19;989.6;;;3.6;69.5
74427;BME280;62859;53.906;27.430;2023-02-01T15:01:56;989.6;;;3.5;69.7
74427;BME280;62859;53.906;27.430;2023-02-01T15:06:43;989.6;;;3.6;69.7
74427;BME280;62859;53.906;27.430;2023-02-01T15:11:11;989.7;;;3.6;70
74427;BME280;62859;53.906;27.430;2023-02-01T15:16:33;989.7;;;3.7;70
74427;BME280;62859;53.906;27.430;2023-02-01T15:21:23;989.7;;;3.7;69.7
74427;BME280;62859;53.906;27.430;2023-02-01T15:26:33;989.7;;;3.8;69.6
74427;BME280;62859;53.906;27.430;2023-02-01T15:31:57;989.7;;;3.8;69.2
74427;BME280;62859;53.906;27.430;2023-02-01T15:36:35;989.7;;;3.8;69
74427;BME280;62859;53.906;27.430;2023-02-01T15:41:59;989.7;;;3.8;69.2
74427;BME280;62859;53.906;27.430;2023-02-01T15:46:38;989.7;;;3.8;69.2
74427;BME280;62859;53.906;27.430;2023-02-01T15:52:00;989.7;;;3.8;69
74427;BME280;62859;53.906;27.430;2023-02-01T15:56:09;989.7;;;3.9;69
74427;BME280;62859;53.906;27.430;2023-02-01T16:01:43;989.6;;;4;69.3
74427;BME280;62859;53.906;27.430;2023-02-01T16:06:29;989.6;;;3.9;69.1
74427;BME280;62859;53.906;27.430;2023-02-01T16:11:56;989.5;;;3.9;69.1
74427;BME280;62859;53.906;27.430;2023-02-01T16:16:47;989.5;;;3.9;69.1
74427;BME280;62859;53.906;27.430;2023-02-01T16:21:55;989.6;;;3.8;69.1
74427;BME280;62859;53.906;27.430;2023-02-01T16:26:57;989.5;;;3.8;69.5
74427;BME280;62859;53.906;27.430;2023-02-01T16:31:45;989.5;;;3.7;69.5
74427;BME280;62859;53.906;27.430;2023-02-01T16:36:43;989.5;;;3.7;69.8
74427;BME280;62859;53.906;27.430;2023-02-01T16:41:33;989.4;;;3.8;69.5
74427;BME280;62859;53.906;27.430;2023-02-01T16:46:47;989.4;;;3.8;69.8
74427;BME280;62859;53.906;27.430;2023-02-01T16:51:10;989.4;;;3.8;69.7
74427;BME280;62859;53.906;27.430;2023-02-01T16:56:45;989.5;;;3.8;69.4
74427;BME280;62859;53.906;27.430;2023-02-01T17:01:10;989.5;;;3.9;69.3
74427;BME280;62859;53.906;27.430;2023-02-01T17:06:10;989.5;;;3.9;68.9
74427;BME280;62859;53.906;27.430;2023-02-01T17:11:33;989.5;;;3.8;69.2
74427;BME280;62859;53.906;27.430;2023-02-01T17:16:59;989.5;;;3.7;69.4
74427;BME280;62859;53.906;27.430;2023-02-01T17:21:46;989.5;;;3.7;69.4
74427;BME280;62859;53.906;27.430;2023-02-01T17:26:35;989.5;;;3.7;69.5
74427;BME280;62859;53.906;27.430;2023-02-01T17:31:57;989.5;;;3.7;69.8
74427;BME280;62859;53.906;27.430;2023-02-01T17:36:10;989.5;;;3.6;69.8
74427;BME280;62859;53.906;27.430;2023-02-01T17:41:47;989.5;;;3.6;69.8
74427;BME280;62859;53.906;27.430;2023-02-01T17:46:10;989.5;;;3.6;70
74427;BME280;62859;53.906;27.430;2023-02-01T17:51:47;989.5;;;3.6;69.8
74427;BME280;62859;53.906;27.430;2023-02-01T17:56:23;989.5;;;3.6;69.7
74427;BME280;62859;53.906;27.430;2023-02-01T18:01:57;989.5;;;3.7;69.5
74427;BME280;62859;53.906;27.430;2023-02-01T18:06:10;989.4;;;3.7;69.2
74427;BME280;62859;53.906;27.430;2023-02-01T18:11:45;989.4;;;3.8;69.3
74427;BME280;62859;53.906;27.430;2023-02-01T18:16:47;989.4;;;3.8;69.2
74427;BME280;62859;53.906;27.430;2023-02-01T18:21:45;989.4;;;3.9;69
74427;BME280;62859;53.906;27.430;2023-02-01T18:26:33;989.4;;;4;68.7
74427;BME280;62859;53.906;27.430;2023-02-01T18:31:16;989.4;;;4;68.3
74427;BME280;62859;53.906;27.430;2023-02-01T18:36:57;989.4;;;4.1;68.2
74427;BME280;62859;53.906;27.430;2023-02-01T18:41:09;989.4;;;4;68.1
74427;BME280;62859;53.906;27.430;2023-02-01T18:46:43;989.4;;;4;68.3
74427;BME280;62859;53.906;27.430;2023-02-01T18:51:57;989.4;;;4;68.2
74427;BME280;62859;53.906;27.430;2023-02-01T18:56:57;989.5;;;4;68.3
74427;BME280;62859;53.906;27.430;2023-02-01T19:01:19;989.4;;;4.1;68.2
74427;BME280;62859;53.906;27.430;2023-02-01T19:06:43;989.3;;;4.1;67.5
74427;BME280;62859;53.906;27.430;2023-02-01T19:11:31;989.3;;;4.1;67.3
74427;BME280;62859;53.906;27.430;2023-02-01T19:16:21;989.3;;;4.1;67.3
74427;BME280;62859;53.906;27.430;2023-02-01T19:21:33;989.3;;;4.1;67.5
74427;BME280;62859;53.906;27.430;2023-02-01T19:26:31;989.3;;;4.2;67.5
74427;BME280;62859;53.906;27.430;2023-02-01T19:31:33;989.3;;;4.1;67.6
74427;BME280;62859;53.906;27.430;2023-02-01T19:36:25;989.4;;;4.1;67.8
74427;BME280;62859;53.906;27.430;2023-02-01T19:41:37;989.4;;;4.1;68
74427;BME280;62859;53.906;27.430;2023-02-01T19:46:55;989.4;;;4.2;68.4
74427;BME280;62859;53.906;27.430;2023-02-01T19:51:37;989.4;;;4.2;67.9
74427;BME280;62859;53.906;27.430;2023-02-01T19:56:09;989.4;;;4.2;67.9
74427;BME280;62859;53.906;27.430;2023-02-01T20:01:57;989.5;;;4.2;67.6
74427;BME280;62859;53.906;27.430;2023-02-01T20:06:27;989.5;;;4.2;67.7
74427;BME280;62859;53.906;27.430;2023-02-01T20:11:09;989.6;;;4.2;67.6
74427;BME280;62859;53.906;27.430;2023-02-01T20:16:09;989.6;;;4.2;67.5
74427;BME280;62859;53.906;27.430;2023-02-01T20:21:09;989.6;;;4.2;67
74427;BME280;62859;53.906;27.430;2023-02-01T20:26:33;989.7;;;4.2;67.1
74427;BME280;62859;53.906;27.430;2023-02-01T20:31:57;989.7;;;4.2;67.3
74427;BME280;62859;53.906;27.430;2023-02-01T20:36:35;989.7;;;4.1;67
74427;BME280;62859;53.906;27.430;2023-02-01T20:41:55;989.7;;;4.1;66.6
74427;BME280;62859;53.906;27.430;2023-02-01T20:46:37;989.7;;;4.1;66.4
74427;BME280;62859;53.906;27.430;2023-02-01T20:51:55;989.7;;;4.1;66.4
74427;BME280;62859;53.906;27.430;2023-02-01T20:56:19;989.7;;;4.1;67
74427;BME280;62859;53.906;27.430;2023-02-01T21:01:43;989.7;;;4.1;67.2
74427;BME280;62859;53.906;27.430;2023-02-01T21:06:23;989.7;;;4.1;67.3
74427;BME280;62859;53.906;27.430;2023-02-01T21:11:55;989.8;;;4.2;67.4
74427;BME280;62859;53.906;27.430;2023-02-01T21:16:10;989.7;;;4.3;67.6
74427;BME280;62859;53.906;27.430;2023-02-01T21:21:57;989.8;;;4.3;67.7
74427;BME280;62859;53.906;27.430;2023-02-01T21:26:59;989.8;;;4.3;67.6
74427;BME280;62859;53.906;27.430;2023-02-01T21:31:09;989.9;;;4.3;67.6
74427;BME280;62859;53.906;27.430;2023-02-01T21:36:43;989.9;;;4.1;67.7
74427;BME280;62859;53.906;27.430;2023-02-01T21:41:09;989.9;;;4.1;67.5
74427;BME280;62859;53.906;27.430;2023-02-01T21:46:47;989.9;;;4.2;67.1
74427;BME280;62859;53.906;27.430;2023-02-01T21:51:23;989.9;;;4.1;67
74427;BME280;62859;53.906;27.430;2023-02-01T21:56:43;989.9;;;4.1;66.9
74427;BME280;62859;53.906;27.430;2023-02-01T22:01:23;989.9;;;4.2;67.1
74427;BME280;62859;53.906;27.430;2023-02-01T22:06:43;990;;;4.1;67.4
74427;BME280;62859;53.906;27.430;2023-02-01T22:11:23;990;;;4;67.7
74427;BME280;62859;53.906;27.430;2023-02-01T22:16:57;990;;;4;67.7
74427;BME280;62859;53.906;27.430;2023-02-01T22:21:47;990;;;4;67.9
74427;BME280;62859;53.906;27.430;2023-02-01T22:26:47;990;;;4;67.9
74427;BME280;62859;53.906;27.430;2023-02-01T22:31:41;990;;;4;67.6
74427;BME280;62859;53.906;27.430;2023-02-01T22:36:44;990;;;4;67.5
74427;BME280;62859;53.906;27.430;2023-02-01T22:41:45;990.1;;;4;67.3
74427;BME280;62859;53.906;27.430;2023-02-01T22:46:12;990.1;;;4;67.4
74427;BME280;62859;53.906;27.430;2023-02-01T22:51:41;990.1;;;4.1;67.5
74427;BME280;62859;53.906;27.430;2023-02-01T22:56:21;990.2;;;4.1;67.4
74427;BME280;62859;53.906;27.430;2023-02-01T23:01:39;990.3;;;4;67.1
74427;BME280;62859;53.906;27.430;2023-02-01T23:06:31;990.3;;;4;67.1
74427;BME280;62859;53.906;27.430;2023-02-01T23:11:55;990.3;;;4;67.2
74427;BME280;62859;53.906;27.430;2023-02-01T23:16:42;990.4;;;3.9;67
74427;BME280;62859;53.906;27.430;2023-02-01T23:21:43;990.3;;;3.9;67.1
74427;BME280;62859;53.906;27.430;2023-02-01T23:26:53;990.2;;;3.9;67
74427;BME280;62859;53.906;27.430;2023-02-01T23:31:22;990.3;;;4;67
74427;BME280;62859;53.906;27.430;2023-02-01T23:36:45;990.2;;;4;66.9
74427;BME280;62859;53.906;27.430;2023-02-01T23:41:10;990.3;;;4;67
74427;BME280;62859;53.906;27.430;2023-02-01T23:46:45;990.2;;;3.9;67.1
74427;BME280;62859;53.906;27.430;2023-02-01T23:51:21;990.2;;;4;66.9
74427;BME280;62859;53.906;27.430;2023-02-01T23:56:45;990.3;;;4.1;66.8
